createdAt,value
2018-06-09T00:00:17.987Z,95.40
2018-06-09T00:02:46.311Z,95.40
2018-06-09T00:05:16.260Z,95.50
2018-06-09T00:07:44.596Z,95.50
2018-06-09T00:10:12.941Z,95.50
2018-06-09T00:12:41.263Z,95.50
2018-06-09T00:15:09.578Z,95.50
2018-06-09T00:17:37.934Z,95.40
2018-06-09T00:20:06.252Z,95.40
2018-06-09T00:22:34.597Z,95.30
2018-06-09T00:25:02.924Z,95.30
2018-06-09T00:27:31.265Z,95.30
2018-06-09T00:29:59.586Z,95.60
2018-06-09T00:32:27.937Z,95.40
2018-06-09T00:34:56.264Z,95.40
2018-06-09T00:37:24.610Z,95.40
2018-06-09T00:39:52.925Z,95.50
2018-06-09T00:42:21.274Z,95.50
2018-06-09T00:44:49.594Z,95.40
2018-06-09T00:47:17.947Z,95.50
2018-06-09T00:49:46.260Z,95.60
2018-06-09T00:52:14.602Z,95.60
2018-06-09T00:54:42.913Z,95.50
2018-06-09T00:57:11.258Z,95.50
2018-06-09T00:59:39.566Z,95.70
2018-06-09T01:02:07.910Z,95.70
2018-06-09T01:04:36.224Z,95.80
2018-06-09T01:07:04.578Z,95.80
2018-06-09T01:09:32.905Z,96.00
2018-06-09T01:12:01.263Z,95.90
2018-06-09T01:14:29.597Z,95.90
2018-06-09T01:16:57.962Z,96.00
2018-06-09T01:19:26.282Z,96.00
2018-06-09T01:21:54.614Z,96.10
2018-06-09T01:24:22.970Z,96.30
2018-06-09T01:26:51.305Z,96.30
2018-06-09T01:29:19.654Z,96.40
2018-06-09T01:31:47.988Z,96.40
2018-06-09T01:34:16.336Z,96.40
2018-06-09T01:36:44.658Z,96.50
2018-06-09T01:39:13.011Z,96.50
2018-06-09T01:41:41.331Z,96.60
2018-06-09T01:44:09.685Z,96.60
2018-06-09T01:46:38.005Z,97.00
2018-06-09T01:49:06.352Z,96.60
2018-06-09T01:51:34.675Z,96.70
2018-06-09T01:54:03.025Z,96.80
2018-06-09T01:56:31.349Z,96.90
2018-06-09T01:58:59.692Z,97.00
2018-06-09T02:01:28.012Z,97.00
2018-06-09T02:03:56.437Z,97.00
2018-06-09T02:06:24.792Z,96.90
2018-06-09T02:08:53.181Z,96.90
2018-06-09T02:11:21.513Z,97.00
2018-06-09T02:13:49.868Z,97.10
2018-06-09T02:16:18.189Z,97.10
2018-06-09T02:18:46.551Z,97.10
2018-06-09T02:21:14.877Z,97.20
2018-06-09T02:23:43.232Z,97.30
2018-06-09T02:26:11.559Z,97.20
2018-06-09T02:28:39.915Z,97.10
2018-06-09T02:31:08.233Z,97.10
2018-06-09T02:33:36.584Z,97.10
2018-06-09T02:36:04.907Z,97.10
2018-06-09T02:38:33.236Z,97.20
2018-06-09T02:41:01.581Z,97.20
2018-06-09T02:43:29.901Z,97.30
2018-06-09T02:45:58.264Z,97.30
2018-06-09T02:48:26.582Z,97.30
2018-06-09T02:50:54.933Z,97.30
2018-06-09T02:53:23.262Z,97.30
2018-06-09T02:55:51.628Z,97.40
2018-06-09T02:58:19.953Z,97.40
2018-06-09T03:00:48.299Z,97.50
2018-06-09T03:03:16.621Z,97.50
2018-06-09T03:05:44.987Z,97.60
2018-06-09T03:08:13.321Z,97.60
2018-06-09T03:10:41.682Z,97.60
2018-06-09T03:13:10.005Z,97.60
2018-06-09T03:15:38.358Z,97.60
2018-06-09T03:18:06.704Z,97.50
2018-06-09T03:20:35.072Z,97.60
2018-06-09T03:23:03.389Z,97.50
2018-06-09T03:25:31.735Z,97.50
2018-06-09T03:28:00.075Z,97.50
2018-06-09T03:30:28.425Z,97.50
2018-06-09T03:32:56.742Z,97.60
2018-06-09T03:35:25.093Z,97.60
2018-06-09T03:37:53.413Z,97.60
2018-06-09T03:40:21.761Z,97.60
2018-06-09T03:42:50.074Z,97.60
2018-06-09T03:45:18.434Z,97.60
2018-06-09T03:47:46.765Z,97.60
2018-06-09T03:50:15.124Z,97.60
2018-06-09T03:52:43.449Z,97.40
2018-06-09T03:55:11.004Z,97.40
2018-06-09T03:57:39.356Z,97.20
2018-06-09T04:00:07.676Z,97.10
2018-06-09T04:02:36.026Z,97.00
2018-06-09T04:05:04.346Z,96.90
2018-06-09T04:07:32.694Z,97.20
2018-06-09T04:10:01.013Z,96.70
2018-06-09T04:12:29.366Z,96.60
2018-06-09T04:14:57.697Z,96.60
2018-06-09T04:17:26.056Z,96.70
2018-06-09T04:19:54.395Z,96.80
2018-06-09T04:22:22.755Z,96.90
2018-06-09T04:24:51.083Z,96.90
2018-06-09T04:27:19.429Z,96.80
2018-06-09T04:29:47.752Z,96.70
2018-06-09T04:32:16.092Z,96.70
2018-06-09T04:34:44.410Z,96.40
2018-06-09T04:37:12.769Z,96.30
2018-06-09T04:39:41.086Z,96.10
2018-06-09T04:42:09.446Z,95.90
2018-06-09T04:44:37.773Z,95.60
2018-06-09T04:47:06.124Z,95.40
2018-06-09T04:49:34.444Z,95.30
2018-06-09T04:52:02.808Z,95.00
2018-06-09T04:54:31.141Z,94.90
2018-06-09T04:56:59.462Z,94.80
2018-06-09T04:59:27.815Z,94.70
2018-06-09T05:01:56.149Z,94.30
2018-06-09T05:04:24.512Z,94.30
2018-06-09T05:06:52.834Z,94.20
2018-06-09T05:09:21.184Z,94.20
2018-06-09T05:11:49.505Z,94.10
2018-06-09T05:14:17.854Z,93.90
2018-06-09T05:16:46.187Z,93.90
2018-06-09T05:19:14.553Z,94.00
2018-06-09T05:21:42.886Z,94.00
2018-06-09T05:24:11.237Z,93.70
2018-06-09T05:26:39.576Z,94.20
2018-06-09T05:29:07.946Z,93.80
2018-06-09T05:31:36.273Z,93.80
2018-06-09T05:34:04.616Z,93.50
2018-06-09T05:36:32.938Z,93.20
2018-06-09T05:39:00.522Z,93.20
2018-06-09T05:41:28.853Z,92.60
2018-06-09T05:43:57.206Z,92.10
2018-06-09T05:46:25.535Z,91.80
2018-06-09T05:48:53.901Z,91.60
2018-06-09T05:51:21.469Z,91.60
2018-06-09T05:53:49.827Z,91.10
2018-06-09T05:56:18.171Z,90.90
2018-06-09T05:58:46.489Z,90.90
2018-06-09T06:01:14.846Z,90.80
2018-06-09T06:03:43.172Z,90.70
2018-06-09T06:06:11.533Z,90.50
2018-06-09T06:08:40.400Z,90.40
2018-06-09T06:11:08.752Z,90.40
2018-06-09T06:13:37.073Z,90.20
2018-06-09T06:16:05.431Z,90.10
2018-06-09T06:18:33.750Z,90.20
2018-06-09T06:21:02.113Z,90.20
2018-06-09T06:23:30.436Z,90.20
2018-06-09T06:25:58.801Z,90.00
2018-06-09T06:28:27.127Z,90.00
2018-06-09T06:30:55.486Z,90.00
2018-06-09T06:33:23.808Z,89.90
2018-06-09T06:35:52.160Z,90.00
2018-06-09T06:38:20.494Z,90.00
2018-06-09T06:40:48.850Z,89.60
2018-06-09T06:43:17.203Z,89.30
2018-06-09T06:45:45.561Z,89.10
2018-06-09T06:48:13.890Z,89.10
2018-06-09T06:50:42.257Z,88.40
2018-06-09T06:53:10.591Z,88.10
2018-06-09T06:55:38.916Z,88.10
2018-06-09T06:58:07.260Z,87.70
2018-06-09T07:00:35.578Z,87.20
2018-06-09T07:03:03.930Z,86.40
2018-06-09T07:05:32.249Z,85.50
2018-06-09T07:08:00.622Z,84.50
2018-06-09T07:10:28.949Z,83.80
2018-06-09T07:12:57.315Z,83.50
2018-06-09T07:15:25.634Z,83.80
2018-06-09T07:17:53.995Z,83.30
2018-06-09T07:20:22.318Z,82.30
2018-06-09T07:22:50.720Z,82.10
2018-06-09T07:25:19.048Z,81.20
2018-06-09T07:27:47.474Z,79.90
2018-06-09T07:30:15.820Z,78.90
2018-06-09T07:32:44.181Z,78.90
2018-06-09T07:35:11.801Z,78.90
2018-06-09T07:37:40.121Z,79.10
2018-06-09T07:40:08.461Z,79.00
2018-06-09T07:42:44.065Z,79.20
2018-06-09T07:45:12.393Z,78.70
2018-06-09T07:47:40.776Z,77.80
2018-06-09T07:50:09.101Z,76.60
2018-06-09T07:52:37.426Z,75.70
2018-06-09T07:55:06.010Z,75.50
2018-06-09T07:57:35.056Z,74.90
2018-06-09T08:00:03.408Z,74.80
2018-06-09T08:02:31.742Z,74.50
2018-06-09T08:05:00.110Z,75.00
2018-06-09T08:07:28.445Z,75.60
2018-06-09T08:09:56.800Z,77.30
2018-06-09T08:12:25.183Z,76.80
2018-06-09T08:14:53.539Z,77.00
2018-06-09T08:17:21.094Z,77.00
2018-06-09T08:19:49.447Z,77.90
2018-06-09T08:22:17.837Z,78.20
2018-06-09T08:24:46.327Z,77.90
2018-06-09T08:27:14.733Z,77.20
2018-06-09T08:29:43.192Z,76.00
2018-06-09T08:32:11.512Z,75.50
2018-06-09T08:34:39.881Z,75.10
2018-06-09T08:37:08.197Z,75.10
2018-06-09T08:39:36.509Z,74.30
2018-06-09T08:42:04.895Z,73.10
2018-06-09T08:44:33.209Z,72.70
2018-06-09T08:47:01.560Z,72.00
2018-06-09T08:49:29.886Z,70.80
2018-06-09T08:51:58.355Z,70.30
2018-06-09T08:54:26.676Z,71.20
2018-06-09T08:56:55.083Z,72.30
2018-06-09T08:59:23.391Z,73.50
2018-06-09T09:01:51.745Z,73.30
2018-06-09T09:04:20.078Z,73.20
2018-06-09T09:06:47.674Z,73.20
2018-06-09T09:09:16.010Z,72.90
2018-06-09T09:11:44.445Z,71.00
2018-06-09T09:14:12.853Z,69.70
2018-06-09T09:16:41.267Z,69.20
2018-06-09T09:19:09.685Z,68.90
2018-06-09T09:21:38.292Z,68.50
2018-06-09T09:24:06.621Z,68.80
2018-06-09T09:26:34.981Z,69.50
2018-06-09T09:29:03.300Z,69.80
2018-06-09T09:31:31.628Z,69.40
2018-06-09T09:33:59.977Z,68.90
2018-06-09T09:36:28.301Z,68.50
2018-06-09T09:38:56.669Z,67.50
2018-06-09T09:41:24.986Z,65.50
2018-06-09T09:43:53.357Z,63.70
2018-06-09T09:46:21.733Z,62.90
2018-06-09T09:48:50.065Z,61.90
2018-06-09T09:51:17.625Z,61.90
2018-06-09T09:53:45.985Z,62.80
2018-06-09T09:56:14.327Z,62.30
2018-06-09T09:58:42.680Z,61.80
2018-06-09T10:01:11.012Z,61.10
2018-06-09T10:03:39.359Z,60.60
2018-06-09T10:06:08.313Z,59.70
2018-06-09T10:08:36.673Z,59.60
2018-06-09T10:11:05.004Z,59.00
2018-06-09T10:13:33.352Z,57.70
2018-06-09T10:16:01.686Z,57.70
2018-06-09T10:18:30.044Z,57.20
2018-06-09T10:20:58.379Z,57.20
2018-06-09T10:23:26.732Z,58.00
2018-06-09T10:25:55.052Z,58.40
2018-06-09T10:28:23.401Z,58.50
2018-06-09T10:30:50.956Z,58.50
2018-06-09T10:33:19.313Z,58.30
2018-06-09T10:35:47.650Z,58.60
2018-06-09T10:38:16.000Z,58.70
2018-06-09T10:40:44.321Z,59.10
2018-06-09T10:43:12.671Z,59.70
2018-06-09T10:45:40.994Z,60.70
2018-06-09T10:48:09.348Z,60.50
2018-06-09T10:50:37.688Z,60.50
2018-06-09T10:53:06.046Z,60.60
2018-06-09T10:55:34.372Z,60.60
2018-06-09T10:58:02.731Z,61.60
2018-06-09T11:00:31.050Z,61.60
2018-06-09T11:02:59.536Z,61.90
2018-06-09T11:05:27.907Z,62.30
2018-06-09T11:07:56.235Z,61.60
2018-06-09T11:10:24.598Z,61.60
2018-06-09T11:12:52.985Z,60.60
2018-06-09T11:15:21.490Z,60.00
2018-06-09T11:17:49.910Z,59.50
2018-06-09T11:20:18.324Z,59.60
2018-06-09T11:22:46.651Z,59.70
2018-06-09T11:25:15.008Z,60.10
2018-06-09T11:27:43.328Z,60.00
2018-06-09T11:30:11.690Z,60.30
2018-06-09T11:32:40.021Z,60.00
2018-06-09T11:35:08.377Z,59.60
2018-06-09T11:37:36.780Z,60.10
2018-06-09T11:40:05.143Z,61.00
2018-06-09T11:42:33.601Z,61.40
2018-06-09T11:45:02.004Z,59.60
2018-06-09T11:47:30.331Z,59.00
2018-06-09T11:49:58.687Z,58.70
2018-06-09T11:52:27.001Z,57.90
2018-06-09T11:54:55.356Z,57.50
2018-06-09T11:57:23.688Z,57.70
2018-06-09T11:59:52.038Z,58.10
2018-06-09T12:02:20.376Z,57.70
2018-06-09T12:04:47.966Z,57.70
2018-06-09T12:07:16.302Z,56.00
2018-06-09T12:09:44.651Z,55.80
2018-06-09T12:12:13.037Z,54.90
2018-06-09T12:14:41.394Z,54.50
2018-06-09T12:17:09.830Z,54.10
2018-06-09T12:19:38.138Z,53.60
2018-06-09T12:22:06.500Z,53.90
2018-06-09T12:24:34.872Z,52.80
2018-06-09T12:27:03.245Z,53.20
2018-06-09T12:29:31.562Z,53.50
2018-06-09T12:31:59.921Z,53.70
2018-06-09T12:34:28.254Z,53.30
2018-06-09T12:36:56.610Z,52.90
2018-06-09T12:39:24.975Z,52.90
2018-06-09T12:41:53.312Z,53.40
2018-06-09T12:44:21.653Z,54.10
2018-06-09T12:46:50.001Z,54.50
2018-06-09T12:49:18.337Z,54.70
2018-06-09T12:51:46.690Z,55.30
2018-06-09T12:54:15.025Z,54.10
2018-06-09T12:56:43.423Z,53.00
2018-06-09T12:59:11.774Z,52.20
2018-06-09T13:01:39.379Z,52.10
2018-06-09T13:04:07.711Z,53.10
2018-06-09T13:06:36.025Z,53.00
2018-06-09T13:09:04.398Z,52.80
2018-06-09T13:11:31.944Z,52.80
2018-06-09T13:14:00.348Z,52.60
2018-06-09T13:16:28.677Z,51.90
2018-06-09T13:18:57.034Z,52.00
2018-06-09T13:21:25.352Z,52.80
2018-06-09T13:23:53.702Z,52.90
2018-06-09T13:26:21.258Z,52.80
2018-06-09T13:28:49.612Z,54.70
2018-06-09T13:31:17.945Z,54.90
2018-06-09T13:33:46.298Z,55.40
2018-06-09T13:36:14.639Z,55.00
2018-06-09T13:38:43.013Z,54.00
2018-06-09T13:41:11.604Z,53.40
2018-06-09T13:43:40.329Z,52.70
2018-06-09T13:46:09.005Z,52.30
2018-06-09T13:48:37.358Z,52.00
2018-06-09T13:51:04.917Z,52.00
2018-06-09T13:53:33.268Z,52.10
2018-06-09T13:56:01.607Z,52.80
2018-06-09T13:58:29.976Z,52.70
2018-06-09T14:00:58.310Z,53.00
2018-06-09T14:03:26.669Z,52.40
2018-06-09T14:05:55.001Z,52.20
2018-06-09T14:08:23.364Z,51.40
2018-06-09T14:10:51.739Z,49.50
2018-06-09T14:13:20.253Z,49.30
2018-06-09T14:15:48.623Z,48.60
2018-06-09T14:18:17.014Z,48.60
2018-06-09T14:20:45.454Z,50.70
2018-06-09T14:23:13.776Z,51.90
2018-06-09T14:25:42.151Z,53.00
2018-06-09T14:28:10.483Z,53.90
2018-06-09T14:30:38.841Z,54.60
2018-06-09T14:33:07.164Z,54.60
2018-06-09T14:35:34.763Z,54.60
2018-06-09T14:38:03.091Z,53.20
2018-06-09T14:40:31.467Z,53.00
2018-06-09T14:42:59.778Z,53.30
2018-06-09T14:45:28.140Z,53.10
2018-06-09T14:47:56.461Z,53.60
2018-06-09T14:50:24.814Z,53.70
2018-06-09T14:52:53.133Z,52.80
2018-06-09T14:55:20.733Z,52.80
2018-06-09T14:57:48.293Z,52.00
2018-06-09T15:00:16.656Z,51.60
2018-06-09T15:02:44.983Z,52.30
2018-06-09T15:05:13.337Z,52.60
2018-06-09T15:07:41.668Z,52.80
2018-06-09T15:10:10.022Z,53.30
2018-06-09T15:12:38.353Z,52.60
2018-06-09T15:15:06.705Z,51.90
2018-06-09T15:17:35.070Z,51.30
2018-06-09T15:20:03.401Z,50.90
2018-06-09T15:22:31.758Z,52.10
2018-06-09T15:25:00.083Z,53.20
2018-06-09T15:27:28.447Z,53.90
2018-06-09T15:29:56.765Z,54.70
2018-06-09T15:32:25.124Z,54.90
2018-06-09T15:34:53.443Z,54.90
2018-06-09T15:37:21.789Z,54.30
2018-06-09T15:39:50.137Z,53.40
2018-06-09T15:42:18.503Z,53.80
2018-06-09T15:44:46.062Z,53.80
2018-06-09T15:47:14.424Z,54.40
2018-06-09T15:49:42.745Z,54.80
2018-06-09T15:52:11.203Z,54.60
2018-06-09T15:54:39.530Z,53.90
2018-06-09T15:57:10.226Z,54.10
2018-06-09T15:59:38.587Z,54.00
2018-06-09T16:02:06.933Z,53.60
2018-06-09T16:04:35.255Z,54.00
2018-06-09T16:07:03.607Z,53.50
2018-06-09T16:09:31.933Z,53.10
2018-06-09T16:12:00.277Z,52.60
2018-06-09T16:14:27.830Z,52.60
2018-06-09T16:16:56.182Z,50.60
2018-06-09T16:19:24.513Z,50.90
2018-06-09T16:21:52.878Z,51.90
2018-06-09T16:24:21.198Z,52.30
2018-06-09T16:26:49.519Z,52.00
2018-06-09T16:29:17.890Z,51.50
2018-06-09T16:31:46.217Z,51.50
2018-06-09T16:34:14.589Z,51.60
2018-06-09T16:36:42.925Z,51.60
2018-06-09T16:39:11.294Z,52.10
2018-06-09T16:41:39.618Z,51.40
2018-06-09T16:44:08.002Z,51.30
2018-06-09T16:46:36.322Z,51.00
2018-06-09T16:49:04.680Z,50.40
2018-06-09T16:51:33.022Z,50.80
2018-06-09T16:54:01.391Z,50.70
2018-06-09T16:56:28.946Z,50.70
2018-06-09T16:58:57.292Z,51.50
2018-06-09T17:01:25.613Z,50.80
2018-06-09T17:03:53.957Z,50.40
2018-06-09T17:06:22.287Z,50.40
2018-06-09T17:08:50.637Z,49.90
2018-06-09T17:11:19.016Z,49.60
2018-06-09T17:13:47.555Z,49.40
2018-06-09T17:16:15.963Z,49.20
2018-06-09T17:18:44.444Z,48.60
2018-06-09T17:21:12.778Z,48.30
2018-06-09T17:23:41.134Z,47.70
2018-06-09T17:26:09.497Z,48.20
2018-06-09T17:28:37.814Z,48.00
2018-06-09T17:31:06.153Z,47.00
2018-06-09T17:33:34.490Z,47.30
2018-06-09T17:36:02.840Z,47.70
2018-06-09T17:38:31.186Z,47.80
2018-06-09T17:40:59.549Z,47.70
2018-06-09T17:43:27.918Z,48.10
2018-06-09T17:45:56.263Z,48.40
2018-06-09T17:48:24.086Z,48.30
2018-06-09T17:50:52.585Z,50.40
2018-06-09T17:53:20.980Z,51.50
2018-06-09T17:55:48.712Z,51.60
2018-06-09T17:58:16.414Z,53.10
2018-06-09T18:00:45.057Z,56.30
2018-06-09T18:03:13.375Z,57.60
2018-06-09T18:05:42.067Z,58.70
2018-06-09T18:08:10.447Z,60.00
2018-06-09T18:10:38.921Z,61.80
2018-06-09T18:13:07.249Z,63.50
2018-06-09T18:15:35.597Z,65.70
2018-06-09T18:18:03.921Z,67.60
2018-06-09T18:20:31.557Z,67.60
2018-06-09T18:22:59.951Z,71.80
2018-06-09T18:25:28.230Z,72.70
2018-06-09T18:27:55.830Z,72.70
2018-06-09T18:30:24.211Z,75.90
2018-06-09T18:32:52.631Z,77.40
2018-06-09T18:35:20.982Z,78.30
2018-06-09T18:37:49.340Z,80.00
2018-06-09T18:40:17.842Z,81.50
2018-06-09T18:42:46.192Z,82.40
2018-06-09T18:45:14.550Z,83.30
2018-06-09T18:47:43.009Z,84.00
2018-06-09T18:50:11.340Z,85.40
2018-06-09T18:52:39.705Z,86.00
2018-06-09T18:55:07.321Z,85.90
2018-06-09T18:57:35.982Z,86.00
2018-06-09T19:00:04.343Z,86.60
2018-06-09T19:02:32.767Z,87.40
2018-06-09T19:05:01.107Z,88.30
2018-06-09T19:07:29.520Z,87.80
2018-06-09T19:09:57.898Z,88.00
2018-06-09T19:12:26.437Z,87.80
2018-06-09T19:14:54.765Z,87.90
2018-06-09T19:17:23.160Z,88.00
2018-06-09T19:19:50.706Z,88.00
2018-06-09T19:22:19.065Z,87.90
2018-06-09T19:24:47.408Z,87.90
2018-06-09T19:27:15.808Z,88.30
2018-06-09T19:29:44.193Z,88.20
2018-06-09T19:32:12.526Z,88.90
2018-06-09T19:34:40.886Z,89.40
2018-06-09T19:37:09.206Z,89.90
2018-06-09T19:39:37.575Z,90.00
2018-06-09T19:42:05.963Z,90.00
2018-06-09T19:44:34.309Z,90.10
2018-06-09T19:47:01.862Z,90.10
2018-06-09T19:49:30.381Z,90.40
2018-06-09T19:51:58.725Z,90.70
2018-06-09T19:54:27.109Z,90.80
2018-06-09T19:56:55.467Z,90.70
2018-06-09T19:59:23.823Z,90.70
2018-06-09T20:01:52.134Z,90.90
2018-06-09T20:04:20.491Z,91.10
2018-06-09T20:06:48.809Z,91.30
2018-06-09T20:09:17.257Z,91.40
2018-06-09T20:11:45.763Z,91.50
2018-06-09T20:14:14.311Z,91.20
2018-06-09T20:16:42.632Z,90.90
2018-06-09T20:19:10.995Z,90.40
2018-06-09T20:21:39.330Z,90.00
2018-06-09T20:24:07.676Z,89.80
2018-06-09T20:26:36.012Z,89.70
2018-06-09T20:29:04.372Z,89.70
2018-06-09T20:31:33.729Z,90.00
2018-06-09T20:34:02.092Z,90.50
2018-06-09T20:36:30.489Z,90.70
2018-06-09T20:38:58.809Z,90.70
2018-06-09T20:41:27.196Z,90.60
2018-06-09T20:43:55.605Z,90.60
2018-06-09T20:46:23.965Z,90.80
2018-06-09T20:48:52.302Z,90.70
2018-06-09T20:51:19.947Z,90.70
2018-06-09T20:53:48.289Z,91.10
2018-06-09T20:56:16.648Z,91.30
2018-06-09T20:58:44.969Z,91.40
2018-06-09T21:01:13.326Z,91.40
2018-06-09T21:03:41.659Z,91.70
2018-06-09T21:06:10.005Z,91.80
2018-06-09T21:08:38.335Z,91.50
2018-06-09T21:11:06.691Z,91.40
2018-06-09T21:13:35.009Z,91.40
2018-06-09T21:16:03.365Z,91.40
2018-06-09T21:18:31.721Z,91.50
2018-06-09T21:21:00.070Z,91.60
2018-06-09T21:23:28.390Z,91.50
2018-06-09T21:25:56.718Z,91.60
2018-06-09T21:28:25.064Z,91.40
2018-06-09T21:30:53.388Z,91.30
2018-06-09T21:33:21.740Z,91.30
2018-06-09T21:35:54.281Z,91.20
2018-06-09T21:38:22.625Z,91.10
2018-06-09T21:40:50.942Z,91.00
2018-06-09T21:43:19.286Z,91.60
2018-06-09T21:45:47.605Z,91.40
2018-06-09T21:48:15.993Z,91.70
2018-06-09T21:50:44.306Z,92.00
2018-06-09T21:53:12.659Z,92.30
2018-06-09T21:55:40.979Z,92.50
2018-06-09T21:58:09.358Z,92.70
2018-06-09T22:00:37.693Z,92.80
2018-06-09T22:03:06.041Z,93.10
2018-06-09T22:05:34.363Z,93.20
2018-06-09T22:08:02.719Z,93.50
2018-06-09T22:10:31.042Z,93.90
2018-06-09T22:12:59.409Z,93.60
2018-06-09T22:15:27.729Z,93.50
2018-06-09T22:17:56.072Z,93.70
2018-06-09T22:20:24.390Z,93.80
2018-06-09T22:22:52.738Z,93.80
2018-06-09T22:25:21.069Z,93.90
2018-06-09T22:27:48.664Z,93.80
2018-06-09T22:30:16.981Z,94.30
2018-06-09T22:32:45.347Z,94.20
2018-06-09T22:35:13.678Z,94.40
2018-06-09T22:37:42.037Z,94.50
2018-06-09T22:40:10.387Z,94.60
2018-06-09T22:42:38.758Z,94.70
2018-06-09T22:45:07.081Z,94.80
2018-06-09T22:47:35.399Z,94.80
2018-06-09T22:50:03.756Z,94.80
2018-06-09T22:52:32.077Z,94.90
2018-06-09T22:55:00.433Z,95.00
2018-06-09T22:57:28.764Z,95.20
2018-06-09T22:59:57.141Z,95.30
2018-06-09T23:02:25.555Z,95.40
2018-06-09T23:04:53.852Z,95.40
2018-06-09T23:07:22.175Z,95.40
2018-06-09T23:09:50.530Z,95.40
2018-06-09T23:12:18.862Z,95.30
2018-06-09T23:14:47.206Z,95.30
2018-06-09T23:17:15.542Z,95.80
2018-06-09T23:19:43.911Z,95.40
2018-06-09T23:22:12.241Z,95.60
2018-06-09T23:24:40.606Z,95.40
2018-06-09T23:27:08.936Z,95.50
2018-06-09T23:29:37.277Z,95.40
2018-06-09T23:32:05.606Z,95.20
2018-06-09T23:34:33.961Z,95.30
2018-06-09T23:37:02.281Z,95.50
2018-06-09T23:39:30.642Z,95.60
2018-06-09T23:41:58.980Z,95.80
2018-06-09T23:44:27.331Z,96.00
2018-06-09T23:46:55.667Z,96.20
2018-06-09T23:49:24.018Z,96.10
2018-06-09T23:51:52.341Z,96.60
2018-06-09T23:54:20.699Z,96.20
2018-06-09T23:56:49.024Z,96.30
2018-06-09T23:59:17.373Z,96.40
